Time;durP1;ratioP1;P1;durP2;ratioP2;P2;SDS_P1;SDS_P2;PMS_P1;PMS_P2;Temp;Humidity;BMP_temperature;BMP_pressure;BME280_temperature;BME280_humidity;BME280_pressure;Samples;Min_cycle;Max_cycle;Signal;HPM_P1;HPM_P2
2023/08/28 00:02:25;;;;;;;4.03;1.83;;;;;;;15.29;100.00;96239.22;5112428;28;20213;-64
2023/08/28 00:04:52;;;;;;;3.13;2.00;;;;;;;15.28;100.00;96233.06;5111776;28;20209;-64
2023/08/28 00:07:18;;;;;;;4.70;2.20;;;;;;;15.22;100.00;96235.63;5112516;28;20205;-64
2023/08/28 00:09:46;;;;;;;2.23;2.00;;;;;;;15.15;100.00;96234.69;5112220;28;20342;-64
2023/08/28 00:12:13;;;;;;;2.40;2.08;;;;;;;15.09;100.00;96230.91;5111877;28;20204;-64
2023/08/28 00:14:39;;;;;;;2.42;1.95;;;;;;;15.04;100.00;96224.47;5111901;28;20286;-66
2023/08/28 00:17:06;;;;;;;2.10;1.90;;;;;;;15.13;100.00;96220.72;5111926;28;20219;-63
2023/08/28 00:19:33;;;;;;;3.22;2.05;;;;;;;15.19;100.00;96220.84;5110969;28;20656;-67
2023/08/28 00:22:00;;;;;;;1.73;1.63;;;;;;;15.15;100.00;96213.38;5111387;28;20823;-66
2023/08/28 00:24:26;;;;;;;3.13;1.90;;;;;;;15.16;100.00;96225.72;5111459;28;20641;-65
2023/08/28 00:26:55;;;;;;;1.90;1.80;;;;;;;15.18;100.00;96237.00;5111457;28;20239;-66
2023/08/28 00:29:22;;;;;;;2.20;2.00;;;;;;;15.16;100.00;96249.69;5111026;28;20280;-64
2023/08/28 00:31:48;;;;;;;3.40;2.47;;;;;;;15.19;100.00;96252.81;5111620;28;20212;-65
2023/08/28 00:34:15;;;;;;;2.50;2.40;;;;;;;15.23;100.00;96258.59;5110960;28;20213;-66
2023/08/28 00:36:42;;;;;;;3.03;1.70;;;;;;;15.17;100.00;96248.66;5111202;28;20216;-67
2023/08/28 00:39:09;;;;;;;2.13;2.00;;;;;;;15.23;100.00;96237.28;5111251;28;20251;-65
2023/08/28 00:41:36;;;;;;;3.33;2.60;;;;;;;15.19;100.00;96241.31;5111709;28;20235;-64
2023/08/28 00:44:04;;;;;;;2.93;2.77;;;;;;;15.21;100.00;96237.47;5111456;28;20201;-64
2023/08/28 00:46:32;;;;;;;3.00;2.80;;;;;;;15.26;100.00;96232.44;5111861;28;20193;-64
2023/08/28 00:48:58;;;;;;;2.80;2.50;;;;;;;15.26;100.00;96235.09;5111893;28;20225;-63
2023/08/28 00:51:25;;;;;;;3.00;2.80;;;;;;;15.31;100.00;96231.84;5111871;28;20292;-65
2023/08/28 00:53:51;;;;;;;2.80;2.60;;;;;;;15.24;100.00;96229.09;5111891;28;20659;-65
2023/08/28 00:56:18;;;;;;;4.00;2.87;;;;;;;15.26;100.00;96221.78;5116218;28;20600;-65
2023/08/28 00:58:47;;;;;;;3.10;2.80;;;;;;;15.23;100.00;96210.66;5122662;28;20219;-64
2023/08/28 01:01:15;;;;;;;3.40;3.20;;;;;;;15.14;100.00;96211.72;5117979;28;20652;-65
2023/08/28 01:03:41;;;;;;;3.50;3.10;;;;;;;15.07;100.00;96197.47;5112203;28;20201;-66
2023/08/28 01:06:15;;;;;;;3.55;3.25;;;;;;;15.14;100.00;96193.09;5112458;28;20216;-65
2023/08/28 01:08:46;;;;;;;3.50;3.20;;;;;;;15.12;100.00;96192.44;5113184;28;20201;-66
2023/08/28 01:11:18;;;;;;;3.42;3.13;;;;;;;15.14;100.00;96185.94;5112289;28;20196;-65
2023/08/28 01:13:48;;;;;;;3.30;3.00;;;;;;;15.21;100.00;96191.34;5113241;28;20205;-63
2023/08/28 01:16:17;;;;;;;3.50;3.20;;;;;;;15.16;100.00;96185.75;5112915;28;20216;-65
2023/08/28 01:18:43;;;;;;;3.23;3.03;;;;;;;15.23;100.00;96184.00;5113235;28;20197;-65
2023/08/28 01:21:10;;;;;;;4.93;2.97;;;;;;;15.19;100.00;96172.06;5113093;28;20615;-63
2023/08/28 01:23:39;;;;;;;3.47;3.27;;;;;;;15.27;100.00;96162.13;5113762;28;20213;-65
2023/08/28 01:26:08;;;;;;;3.83;3.53;;;;;;;15.30;100.00;96158.28;5112698;28;20593;-63
2023/08/28 01:28:34;;;;;;;4.13;3.83;;;;;;;15.28;100.00;96145.16;5113258;28;20275;-64
2023/08/28 01:31:04;;;;;;;4.00;3.70;;;;;;;15.26;100.00;96141.03;5112216;28;20904;-67
2023/08/28 01:33:31;;;;;;;4.10;3.70;;;;;;;15.28;100.00;96149.66;5111724;28;20332;-63
2023/08/28 01:36:05;;;;;;;3.87;3.40;;;;;;;15.31;100.00;96143.94;5110721;28;20644;-64
2023/08/28 01:38:34;;;;;;;3.67;3.40;;;;;;;15.15;100.00;96139.66;5111225;28;20205;-65
2023/08/28 01:41:05;;;;;;;3.60;3.30;;;;;;;15.19;100.00;96129.44;5110958;28;20247;-65
2023/08/28 01:43:36;;;;;;;3.70;3.50;;;;;;;15.24;100.00;96119.06;5111119;28;20193;-66
2023/08/28 01:46:05;;;;;;;3.67;3.33;;;;;;;15.27;100.00;96122.19;5110622;28;20197;-66
2023/08/28 01:48:35;;;;;;;3.87;3.57;;;;;;;15.24;100.00;96114.56;5111012;28;20197;-65
2023/08/28 01:51:02;;;;;;;3.40;3.10;;;;;;;15.25;100.00;96116.22;5110457;28;20546;-63
2023/08/28 01:53:29;;;;;;;3.70;3.40;;;;;;;15.23;100.00;96112.91;5110725;28;20201;-64
2023/08/28 01:56:22;;;;;;;3.47;3.25;;;;;;;15.19;100.00;96108.16;5110900;28;20204;-64
2023/08/28 01:58:52;;;;;;;3.28;3.00;;;;;;;15.18;100.00;96102.00;5110955;28;20262;-63
2023/08/28 02:01:18;;;;;;;2.90;2.70;;;;;;;15.21;100.00;96103.44;5111407;28;20217;-64
2023/08/28 02:03:45;;;;;;;2.90;2.70;;;;;;;15.24;100.00;96111.06;5111089;28;20299;-65
2023/08/28 02:06:12;;;;;;;3.00;2.80;;;;;;;15.27;100.00;96118.69;5110358;28;20656;-65
2023/08/28 02:08:38;;;;;;;3.25;3.03;;;;;;;15.27;100.00;96126.66;5111279;28;20198;-64
2023/08/28 02:11:05;;;;;;;3.30;3.03;;;;;;;15.19;100.00;96134.78;5110719;28;20201;-65
2023/08/28 02:13:33;;;;;;;3.22;3.03;;;;;;;15.17;100.00;96132.28;5114177;28;20616;-65
2023/08/28 02:16:04;;;;;;;2.65;2.45;;;;;;;15.18;100.00;96130.47;5114713;28;20205;-65
2023/08/28 02:18:32;;;;;;;2.80;2.60;;;;;;;15.18;100.00;96128.63;5115064;28;20193;-64
2023/08/28 02:20:58;;;;;;;2.77;2.57;;;;;;;15.11;100.00;96122.38;5113548;28;20224;-65
2023/08/28 02:23:26;;;;;;;3.77;2.57;;;;;;;15.10;100.00;96119.88;5115149;28;20201;-63
2023/08/28 02:25:53;;;;;;;2.00;1.90;;;;;;;15.11;100.00;96100.25;5114604;28;20272;-63
2023/08/28 02:28:20;;;;;;;2.53;2.33;;;;;;;15.15;100.00;96097.03;5114182;28;20677;-63
2023/08/28 02:30:46;;;;;;;2.78;2.58;;;;;;;15.18;100.00;96095.81;5114437;28;20224;-65
2023/08/28 02:33:15;;;;;;;2.58;2.30;;;;;;;15.17;100.00;96094.16;5114601;28;20208;-64
2023/08/28 02:35:42;;;;;;;2.55;2.35;;;;;;;15.19;100.00;96094.81;5113349;28;20315;-66
2023/08/28 02:38:09;;;;;;;2.63;2.42;;;;;;;15.15;100.00;96090.88;5096079;28;20209;-65
2023/08/28 02:40:37;;;;;;;3.63;2.60;;;;;;;15.10;100.00;96086.09;5114108;28;20212;-66
2023/08/28 02:43:05;;;;;;;2.40;2.30;;;;;;;15.10;100.00;96083.44;5114155;28;20209;-66
2023/08/28 02:45:34;;;;;;;2.70;2.50;;;;;;;15.04;100.00;96084.19;5113767;28;20240;-65
2023/08/28 02:48:01;;;;;;;2.95;2.75;;;;;;;15.03;100.00;96087.84;5114641;28;20246;-64
2023/08/28 02:50:29;;;;;;;2.78;2.58;;;;;;;15.02;100.00;96074.72;5114406;28;20301;-65
2023/08/28 02:52:56;;;;;;;2.43;2.23;;;;;;;15.03;100.00;96071.03;5114625;28;20232;-64
2023/08/28 02:55:24;;;;;;;2.80;2.60;;;;;;;15.10;100.00;96077.28;5114660;28;20217;-66
2023/08/28 02:57:50;;;;;;;2.20;2.10;;;;;;;15.08;100.00;96071.31;5115204;28;20227;-66
2023/08/28 03:00:18;;;;;;;2.30;2.20;;;;;;;15.17;100.00;96062.22;5114220;28;20197;-64
2023/08/28 03:02:46;;;;;;;2.60;2.50;;;;;;;15.15;100.00;96067.75;5114479;28;20273;-66
2023/08/28 03:05:13;;;;;;;2.97;2.70;;;;;;;15.07;100.00;96051.00;5117832;28;20193;-66
2023/08/28 03:07:42;;;;;;;2.85;2.75;;;;;;;15.12;100.00;96059.28;5123483;28;20193;-66
2023/08/28 03:10:10;;;;;;;3.22;3.03;;;;;;;15.13;100.00;96061.75;5128961;28;20197;-64
2023/08/28 03:12:37;;;;;;;3.20;3.00;;;;;;;15.11;100.00;96055.81;5113526;28;20201;-63
2023/08/28 03:15:04;;;;;;;3.53;3.22;;;;;;;15.11;100.00;96042.47;5114250;28;20529;-65
2023/08/28 03:17:31;;;;;;;3.78;3.47;;;;;;;15.06;100.00;96044.84;5113621;28;20193;-65
2023/08/28 03:19:57;;;;;;;4.15;3.85;;;;;;;15.14;100.00;96047.44;5113348;28;20197;-64
2023/08/28 03:22:23;;;;;;;3.93;3.63;;;;;;;15.12;100.00;96040.66;5112321;28;20232;-64
2023/08/28 03:24:52;;;;;;;4.25;3.85;;;;;;;15.15;100.00;96035.78;5114368;28;20201;-66
2023/08/28 03:27:19;;;;;;;4.32;4.03;;;;;;;15.17;100.00;96036.41;5115457;28;20323;-66
2023/08/28 03:29:45;;;;;;;4.00;3.63;;;;;;;15.15;100.00;96037.63;5113383;28;20197;-64
2023/08/28 03:32:12;;;;;;;4.43;4.10;;;;;;;15.14;100.00;96033.28;5113053;28;20868;-65
2023/08/28 03:34:38;;;;;;;3.45;3.25;;;;;;;15.07;100.00;96032.38;5112412;28;20511;-64
2023/08/28 03:37:05;;;;;;;3.58;3.28;;;;;;;15.04;100.00;96030.91;5112547;28;20524;-63
2023/08/28 03:39:31;;;;;;;3.35;3.05;;;;;;;14.98;100.00;96026.34;5112264;28;20336;-66
2023/08/28 03:41:59;;;;;;;2.95;2.70;;;;;;;14.99;100.00;96019.97;5111886;28;20229;-63
2023/08/28 03:44:25;;;;;;;3.25;2.88;;;;;;;15.02;100.00;96014.28;5112039;28;20739;-64
2023/08/28 03:46:52;;;;;;;4.22;3.30;;;;;;;14.94;100.00;96020.56;5112211;28;20731;-63
2023/08/28 03:49:19;;;;;;;3.55;3.25;;;;;;;14.93;100.00;96020.72;5112465;28;20286;-65
2023/08/28 03:51:47;;;;;;;3.05;2.85;;;;;;;15.01;100.00;96019.81;5112723;28;20193;-62
2023/08/28 03:54:14;;;;;;;3.17;2.97;;;;;;;14.92;100.00;96022.56;5113129;28;20206;-63
2023/08/28 03:56:40;;;;;;;3.90;3.60;;;;;;;14.97;100.00;96031.84;5112144;28;20217;-63
2023/08/28 03:59:08;;;;;;;4.00;3.58;;;;;;;15.01;100.00;96035.78;5112494;28;20209;-63
2023/08/28 04:01:36;;;;;;;3.90;3.60;;;;;;;14.99;100.00;96049.28;5112210;28;20690;-64
2023/08/28 04:04:03;;;;;;;3.60;3.20;;;;;;;15.01;100.00;96049.09;5112166;28;20544;-63
2023/08/28 04:06:30;;;;;;;3.20;3.00;;;;;;;14.93;100.00;96050.84;5111407;28;20201;-63
2023/08/28 04:08:57;;;;;;;2.60;2.50;;;;;;;14.94;100.00;96041.03;5093848;28;20212;-64
2023/08/28 04:11:24;;;;;;;2.50;2.40;;;;;;;14.91;100.00;96047.53;5111747;28;20201;-64
2023/08/28 04:13:50;;;;;;;2.20;2.10;;;;;;;14.80;100.00;96047.19;5111627;28;20209;-63
2023/08/28 04:16:22;;;;;;;2.10;2.00;;;;;;;14.83;100.00;96046.81;5111945;28;20201;-64
2023/08/28 04:18:48;;;;;;;1.90;1.80;;;;;;;14.82;100.00;96061.13;5113216;28;20189;-66
2023/08/28 04:21:15;;;;;;;2.00;1.77;;;;;;;14.75;100.00;96053.06;5112249;28;20235;-65
2023/08/28 04:23:42;;;;;;;2.10;2.00;;;;;;;14.50;100.00;96051.66;5112410;28;20228;-65
2023/08/28 04:26:08;;;;;;;1.67;1.50;;;;;;;14.50;100.00;96046.31;5111189;28;20227;-63
2023/08/28 04:28:35;;;;;;;1.83;1.57;;;;;;;14.49;100.00;96042.00;5110985;28;20229;-64
2023/08/28 04:31:02;;;;;;;2.50;1.60;;;;;;;14.45;100.00;96043.41;5111994;28;20259;-64
2023/08/28 04:33:30;;;;;;;1.53;1.33;;;;;;;14.30;100.00;96038.03;5111790;28;20694;-66
2023/08/28 04:35:56;;;;;;;3.93;1.50;;;;;;;14.35;100.00;96038.31;5111413;28;20588;-63
2023/08/28 04:38:23;;;;;;;2.65;1.42;;;;;;;14.23;100.00;96037.09;5111846;28;20201;-64
2023/08/28 04:40:50;;;;;;;1.87;1.27;;;;;;;14.13;100.00;96035.69;5111439;28;20593;-65
2023/08/28 04:43:17;;;;;;;2.10;1.47;;;;;;;14.11;100.00;96033.19;5111269;28;20578;-64
2023/08/28 04:45:43;;;;;;;1.77;1.43;;;;;;;14.14;100.00;96029.34;5111509;28;20525;-62
2023/08/28 04:48:10;;;;;;;1.60;1.50;;;;;;;13.95;100.00;96028.03;5111355;28;20637;-65
2023/08/28 04:50:59;;;;;;;2.47;1.40;;;;;;;13.99;100.00;96029.34;5112743;28;20209;-61
2023/08/28 04:53:29;;;;;;;2.30;1.47;;;;;;;14.14;100.00;96024.03;5128789;28;20185;-64
2023/08/28 04:55:56;;;;;;;3.57;1.47;;;;;;;14.17;100.00;96027.16;5123807;28;20225;-64
2023/08/28 04:58:22;;;;;;;2.43;1.47;;;;;;;14.21;100.00;96028.44;5114489;28;20225;-65
2023/08/28 05:00:49;;;;;;;2.70;1.57;;;;;;;14.09;100.00;96021.09;5111518;28;20200;-62
2023/08/28 05:03:15;;;;;;;1.60;1.50;;;;;;;14.09;100.00;96019.28;5112006;28;20224;-64
2023/08/28 05:05:42;;;;;;;1.93;1.70;;;;;;;14.18;100.00;96030.63;5111475;28;20604;-63
2023/08/28 05:08:10;;;;;;;4.53;2.00;;;;;;;14.21;100.00;96023.13;5111738;28;20205;-67
2023/08/28 05:10:37;;;;;;;2.87;1.50;;;;;;;14.22;100.00;96008.00;5112235;28;20193;-63
2023/08/28 05:13:05;;;;;;;2.13;1.98;;;;;;;14.17;100.00;95994.44;5115353;28;20197;-64
2023/08/28 05:15:32;;;;;;;1.70;1.60;;;;;;;14.19;100.00;95982.59;5118609;28;20265;-66
2023/08/28 05:17:58;;;;;;;1.97;1.70;;;;;;;14.11;100.00;95984.50;5113455;28;20204;-63
2023/08/28 05:20:25;;;;;;;2.30;1.70;;;;;;;14.19;100.00;95989.75;5110813;28;20208;-65
2023/08/28 05:22:51;;;;;;;2.65;1.80;;;;;;;14.24;100.00;95977.56;5110855;28;20228;-66
2023/08/28 05:25:19;;;;;;;1.90;1.80;;;;;;;14.31;100.00;95985.66;5111324;28;20209;-64
2023/08/28 05:27:45;;;;;;;2.23;2.03;;;;;;;14.34;100.00;96002.13;5110947;28;20244;-65
2023/08/28 05:30:13;;;;;;;2.38;2.17;;;;;;;14.32;100.00;96019.19;5111123;28;20212;-65
2023/08/28 05:32:39;;;;;;;2.92;2.13;;;;;;;14.36;100.00;96015.22;5110463;28;20633;-67
2023/08/28 05:35:06;;;;;;;3.33;2.30;;;;;;;14.35;100.00;96010.88;5111429;28;20197;-65
2023/08/28 05:37:33;;;;;;;2.40;2.03;;;;;;;14.42;100.00;96009.16;5111518;28;20205;-66
2023/08/28 05:39:59;;;;;;;2.17;2.00;;;;;;;14.37;100.00;96011.56;5111731;28;20213;-65
2023/08/28 05:42:27;;;;;;;2.30;2.10;;;;;;;14.43;100.00;96026.78;5111270;28;20235;-63
2023/08/28 05:44:53;;;;;;;2.60;2.10;;;;;;;14.35;100.00;96011.72;5111065;28;20209;-65
2023/08/28 05:47:20;;;;;;;2.20;2.10;;;;;;;14.46;100.00;95999.81;5112945;28;20209;-64
2023/08/28 05:49:46;;;;;;;2.20;2.00;;;;;;;14.42;100.00;95982.56;5114856;28;20209;-66
2023/08/28 05:52:13;;;;;;;2.33;2.13;;;;;;;14.35;100.00;95993.09;5115114;28;20205;-65
2023/08/28 05:54:39;;;;;;;1.90;1.80;;;;;;;14.38;100.00;95981.28;5115821;28;20208;-63
2023/08/28 05:57:06;;;;;;;2.03;1.93;;;;;;;14.24;100.00;95982.06;5115122;28;20621;-63
2023/08/28 05:59:34;;;;;;;1.70;1.60;;;;;;;14.29;100.00;95985.81;5114980;28;20197;-64
2023/08/28 06:02:00;;;;;;;1.80;1.70;;;;;;;14.36;100.00;95991.28;5114690;28;20232;-63
2023/08/28 06:04:27;;;;;;;2.47;1.77;;;;;;;14.32;100.00;95992.59;5114610;28;20201;-65
2023/08/28 06:06:55;;;;;;;2.20;1.90;;;;;;;14.25;100.00;96007.63;5114632;28;20286;-63
2023/08/28 06:09:21;;;;;;;1.97;1.70;;;;;;;14.26;100.00;96018.09;5115017;28;20621;-64
2023/08/28 06:11:48;;;;;;;2.00;1.90;;;;;;;14.23;100.00;96017.66;5115887;28;20201;-65
2023/08/28 06:14:14;;;;;;;2.70;1.90;;;;;;;14.22;100.00;96013.31;5114731;28;20216;-66
2023/08/28 06:16:42;;;;;;;3.60;1.83;;;;;;;14.16;100.00;96008.75;5115052;28;20198;-63
2023/08/28 06:19:09;;;;;;;2.17;2.03;;;;;;;14.24;100.00;96000.69;5114810;28;20201;-63
2023/08/28 06:21:36;;;;;;;2.77;1.90;;;;;;;14.29;100.00;95985.00;5114574;28;20204;-63
2023/08/28 06:24:03;;;;;;;2.00;1.60;;;;;;;14.28;100.00;95984.16;5115261;28;20200;-63
2023/08/28 06:26:29;;;;;;;4.10;2.13;;;;;;;14.32;100.00;95981.97;5114544;28;20637;-65
2023/08/28 06:28:56;;;;;;;1.90;1.80;;;;;;;14.38;100.00;95982.09;5114953;28;20204;-63
2023/08/28 06:31:22;;;;;;;3.27;1.80;;;;;;;14.24;100.00;95974.91;5114964;28;20220;-66
2023/08/28 06:33:50;;;;;;;3.57;1.77;;;;;;;14.21;100.00;95977.09;5114047;28;20201;-65
2023/08/28 06:36:16;;;;;;;3.13;2.23;;;;;;;14.28;100.00;95970.03;5115241;28;20205;-64
2023/08/28 06:38:43;;;;;;;2.47;2.20;;;;;;;14.33;100.00;95979.13;5115069;28;20197;-66
2023/08/28 06:41:09;;;;;;;2.27;1.90;;;;;;;14.31;100.00;95990.97;5115196;28;20220;-67
2023/08/28 06:43:36;;;;;;;3.37;1.73;;;;;;;14.34;100.00;95995.97;5114626;28;20233;-65
2023/08/28 06:46:02;;;;;;;4.43;1.97;;;;;;;14.30;100.00;95984.84;5115014;28;20205;-65
2023/08/28 06:48:30;;;;;;;1.63;1.53;;;;;;;14.29;100.00;95990.31;5115601;28;20193;-64
2023/08/28 06:50:58;;;;;;;2.03;1.80;;;;;;;14.20;100.00;95970.97;5114650;28;20629;-65
2023/08/28 06:53:25;;;;;;;2.67;1.87;;;;;;;14.33;100.00;95957.03;5115602;28;20220;-65
2023/08/28 06:55:52;;;;;;;2.07;1.93;;;;;;;14.36;100.00;95952.22;5115486;28;20213;-66
2023/08/28 06:58:18;;;;;;;4.30;2.10;;;;;;;14.36;100.00;95952.22;5114525;28;20193;-66
2023/08/28 07:00:45;;;;;;;2.27;2.10;;;;;;;14.46;100.00;95954.59;5116785;28;20205;-65
2023/08/28 07:03:11;;;;;;;3.07;2.10;;;;;;;14.42;100.00;95956.78;5115352;28;20236;-66
2023/08/28 07:05:39;;;;;;;1.70;1.60;;;;;;;14.35;100.00;95969.16;5114571;28;20193;-63
2023/08/28 07:08:07;;;;;;;1.77;1.60;;;;;;;14.41;100.00;95970.28;5115039;28;20224;-65
2023/08/28 07:10:34;;;;;;;3.37;1.97;;;;;;;14.35;100.00;95985.13;5114238;28;20208;-65
2023/08/28 07:13:00;;;;;;;2.33;2.13;;;;;;;14.42;100.00;95978.06;5115531;28;20216;-64
2023/08/28 07:15:54;;;;;;;2.80;1.90;;;;;;;14.36;100.00;95989.44;5114149;28;20193;-64
2023/08/28 07:18:20;;;;;;;1.93;1.83;;;;;;;14.28;100.00;95986.81;5113701;28;20204;-63
2023/08/28 07:20:47;;;;;;;2.07;1.93;;;;;;;14.30;100.00;96000.78;5115595;28;20266;-65
2023/08/28 07:23:15;;;;;;;1.70;1.60;;;;;;;14.40;100.00;95985.41;5117028;28;20691;-65
2023/08/28 07:25:41;;;;;;;1.80;1.70;;;;;;;14.32;100.00;95993.44;5116535;28;20197;-64
2023/08/28 07:28:08;;;;;;;1.93;1.80;;;;;;;14.36;100.00;95989.44;5113361;28;20548;-64
2023/08/28 07:30:35;;;;;;;1.77;1.67;;;;;;;14.27;100.00;95984.38;5113138;28;20640;-64
2023/08/28 07:33:01;;;;;;;1.67;1.57;;;;;;;14.16;100.00;95982.16;5112896;28;20710;-63
2023/08/28 07:35:34;;;;;;;2.67;1.63;;;;;;;14.24;100.00;95980.22;5112401;28;20201;-65
2023/08/28 07:38:00;;;;;;;2.10;1.90;;;;;;;14.24;100.00;95977.56;5112974;28;20201;-64
2023/08/28 07:40:28;;;;;;;3.47;1.90;;;;;;;14.24;100.00;95984.72;5112447;28;20205;-64
2023/08/28 07:42:54;;;;;;;2.03;1.70;;;;;;;14.29;100.00;95988.50;5113162;28;20221;-66
2023/08/28 07:45:21;;;;;;;2.50;1.83;;;;;;;14.31;100.00;95981.13;5112870;28;20196;-64
2023/08/28 07:47:47;;;;;;;2.60;1.97;;;;;;;14.32;100.00;95996.09;5112864;28;20208;-63
2023/08/28 07:50:14;;;;;;;2.30;2.10;;;;;;;14.39;100.00;95993.56;5112480;28;20388;-64
2023/08/28 07:52:41;;;;;;;2.23;1.63;;;;;;;14.43;100.00;95984.22;5112640;28;20206;-65
2023/08/28 07:55:08;;;;;;;2.23;2.03;;;;;;;14.27;100.00;95984.38;5111884;28;20221;-65
2023/08/28 07:57:36;;;;;;;2.03;1.70;;;;;;;14.28;100.00;95986.00;5112774;28;20205;-67
2023/08/28 08:00:06;;;;;;;2.15;1.90;;;;;;;14.34;100.00;95987.97;5112161;28;20205;-66
2023/08/28 08:02:33;;;;;;;2.20;1.73;;;;;;;14.42;100.00;95993.19;5112475;28;20209;-64
2023/08/28 08:04:59;;;;;;;2.53;1.80;;;;;;;14.34;100.00;95972.84;5111172;28;20262;-63
2023/08/28 08:07:26;;;;;;;2.50;1.80;;;;;;;14.37;100.00;95977.81;5112270;28;20228;-64
2023/08/28 08:09:52;;;;;;;2.00;1.90;;;;;;;14.39;100.00;95978.44;5111332;28;20209;-66
2023/08/28 08:12:19;;;;;;;2.07;1.97;;;;;;;14.31;100.00;95977.69;5112333;28;20196;-65
2023/08/28 08:14:46;;;;;;;4.00;1.90;;;;;;;14.37;100.00;95966.34;5111836;28;20272;-63
2023/08/28 08:17:13;;;;;;;2.13;2.03;;;;;;;14.31;100.00;95980.34;5112628;28;20201;-64
2023/08/28 08:19:39;;;;;;;2.80;2.00;;;;;;;14.40;100.00;95972.13;5112726;28;20213;-67
2023/08/28 08:22:06;;;;;;;1.80;1.70;;;;;;;14.44;100.00;95969.91;5112234;28;20209;-65
2023/08/28 08:24:33;;;;;;;14.73;3.50;;;;;;;14.48;100.00;95971.19;5111990;28;20675;-64
2023/08/28 08:26:59;;;;;;;5.70;2.43;;;;;;;14.45;100.00;95968.91;5111642;28;20233;-65
2023/08/28 08:29:26;;;;;;;3.10;2.33;;;;;;;14.49;100.00;95966.72;5113271;28;20201;-65
2023/08/28 08:31:54;;;;;;;3.50;2.00;;;;;;;14.44;100.00;95967.25;5112187;28;20201;-66
2023/08/28 08:34:20;;;;;;;3.03;1.97;;;;;;;14.45;100.00;95968.91;5111084;28;20274;-64
2023/08/28 08:36:47;;;;;;;2.03;1.83;;;;;;;14.45;100.00;95977.69;5111266;28;20208;-67
2023/08/28 08:39:14;;;;;;;2.50;1.90;;;;;;;14.53;100.00;95973.28;5111662;28;20204;-66
2023/08/28 08:41:41;;;;;;;5.50;2.57;;;;;;;14.51;100.00;95970.84;5111932;28;20220;-64
2023/08/28 08:44:08;;;;;;;3.83;2.50;;;;;;;14.57;100.00;95975.41;5111356;28;20232;-66
2023/08/28 08:46:35;;;;;;;2.43;2.23;;;;;;;14.55;100.00;95968.63;5112058;28;20220;-63
2023/08/28 08:49:04;;;;;;;3.37;2.20;;;;;;;14.52;100.00;95974.31;5112067;28;20209;-65
2023/08/28 08:51:31;;;;;;;2.87;2.30;;;;;;;14.52;100.00;95974.31;5111362;28;20205;-64
2023/08/28 08:54:04;;;;;;;2.87;2.07;;;;;;;14.61;100.00;95970.53;5112220;28;20631;-65
2023/08/28 08:56:32;;;;;;;3.33;2.23;;;;;;;14.73;100.00;95959.28;5111807;28;20216;-65
2023/08/28 08:58:59;;;;;;;2.20;2.10;;;;;;;14.82;100.00;95962.63;5111941;28;20240;-63
2023/08/28 09:01:26;;;;;;;2.17;1.97;;;;;;;14.80;100.00;95965.50;5111201;28;20216;-64
2023/08/28 09:03:53;;;;;;;4.00;2.20;;;;;;;14.83;100.00;95970.44;5111955;28;20225;-64
2023/08/28 09:06:21;;;;;;;3.77;2.10;;;;;;;14.91;100.00;95966.88;5110588;28;20209;-66
2023/08/28 09:08:47;;;;;;;4.30;2.67;;;;;;;14.90;100.00;95965.19;5111417;28;20645;-66
2023/08/28 09:11:14;;;;;;;3.07;2.30;;;;;;;14.88;100.00;95962.72;5110606;28;20661;-66
2023/08/28 09:13:43;;;;;;;2.40;2.20;;;;;;;14.81;100.00;95961.81;5111338;28;20652;-65
2023/08/28 09:16:10;;;;;;;3.23;2.10;;;;;;;14.92;100.00;95960.50;5110712;28;20193;-66
2023/08/28 09:18:38;;;;;;;2.33;2.10;;;;;;;15.01;100.00;95951.41;5111566;28;20261;-66
2023/08/28 09:21:08;;;;;;;2.83;2.27;;;;;;;15.01;100.00;95955.91;5110687;28;20699;-67
2023/08/28 09:23:41;;;;;;;2.20;2.10;;;;;;;15.05;100.00;95947.38;5116371;28;20279;-64
2023/08/28 09:26:08;;;;;;;2.42;2.10;;;;;;;15.16;100.00;95943.41;5115820;28;20201;-66
2023/08/28 09:28:34;;;;;;;1.73;1.63;;;;;;;15.07;100.00;95940.00;5120351;28;20251;-65
2023/08/28 09:31:01;;;;;;;2.70;1.93;;;;;;;15.06;100.00;95938.34;5124943;28;20192;-67
2023/08/28 09:33:42;;;;;;;4.88;2.42;;;;;;;14.95;100.00;95923.69;5126498;28;20216;-66
2023/08/28 09:36:14;;;;;;;2.53;2.30;;;;;;;15.00;100.00;95927.63;5114751;28;20216;-66
2023/08/28 09:38:43;;;;;;;1.70;1.60;;;;;;;14.98;100.00;95937.66;5115148;28;20197;-67
2023/08/28 09:41:09;;;;;;;1.90;1.80;;;;;;;15.01;100.00;95919.47;5115157;28;20204;-64
2023/08/28 09:43:38;;;;;;;1.85;1.70;;;;;;;14.91;100.00;95933.06;5114598;28;20228;-64
2023/08/28 09:46:05;;;;;;;2.30;2.20;;;;;;;14.92;100.00;95925.91;5114645;28;20550;-64
2023/08/28 09:48:32;;;;;;;4.05;2.25;;;;;;;15.02;100.00;95925.63;5114968;28;20758;-65
2023/08/28 09:51:00;;;;;;;2.47;2.20;;;;;;;15.05;100.00;95920.75;5096247;28;20209;-63
2023/08/28 09:53:28;;;;;;;2.70;2.35;;;;;;;15.21;100.00;95925.00;5114484;28;20785;-67
2023/08/28 09:55:57;;;;;;;2.95;2.20;;;;;;;15.17;100.00;95931.72;5114258;28;20212;-65
2023/08/28 09:58:24;;;;;;;2.40;2.20;;;;;;;15.14;100.00;95932.91;5114660;28;20213;-65
2023/08/28 10:00:52;;;;;;;2.50;2.20;;;;;;;15.22;100.00;95937.31;5114879;28;20233;-65
2023/08/28 10:03:18;;;;;;;3.55;2.47;;;;;;;15.26;100.00;95943.91;5114301;28;20316;-65
2023/08/28 10:05:46;;;;;;;2.70;1.88;;;;;;;15.13;100.00;95938.41;5114446;28;20632;-64
2023/08/28 10:08:13;;;;;;;2.50;2.30;;;;;;;15.27;100.00;95946.38;5114044;28;20216;-65
2023/08/28 10:10:44;;;;;;;2.00;1.90;;;;;;;15.31;100.00;95941.47;5113878;28;20640;-65
2023/08/28 10:13:14;;;;;;;2.28;1.70;;;;;;;15.35;100.00;95934.78;5114763;28;20197;-64
2023/08/28 10:15:46;;;;;;;2.15;1.92;;;;;;;15.36;100.00;95923.09;5114071;28;20633;-63
2023/08/28 10:18:15;;;;;;;1.85;1.73;;;;;;;15.37;100.00;95924.75;5114029;28;20535;-66
2023/08/28 10:20:43;;;;;;;2.15;1.90;;;;;;;15.40;100.00;95927.03;5113968;28;20216;-64
2023/08/28 10:23:10;;;;;;;2.33;2.00;;;;;;;15.26;100.00;95922.59;5115376;28;20251;-66
2023/08/28 10:25:37;;;;;;;1.92;1.80;;;;;;;15.33;100.00;95929.66;5114713;28;20741;-64
2023/08/28 10:28:05;;;;;;;1.95;1.83;;;;;;;15.26;100.00;95931.41;5114919;28;20240;-65
2023/08/28 10:30:35;;;;;;;2.08;1.95;;;;;;;15.25;100.00;95928.94;5114479;28;20557;-64
2023/08/28 10:33:03;;;;;;;2.50;2.30;;;;;;;15.25;100.00;95920.94;5114737;28;20205;-64
2023/08/28 10:35:33;;;;;;;2.10;2.00;;;;;;;15.25;100.00;95927.09;5114314;28;20193;-65
2023/08/28 10:38:01;;;;;;;1.83;1.73;;;;;;;15.23;100.00;95933.63;5114647;28;20209;-67
2023/08/28 10:40:27;;;;;;;2.85;2.20;;;;;;;15.16;100.00;95941.53;5113821;28;20633;-66
2023/08/28 10:42:55;;;;;;;2.03;1.83;;;;;;;15.18;100.00;95930.69;5114470;28;20207;-66
2023/08/28 10:45:21;;;;;;;2.15;2.03;;;;;;;15.15;100.00;95929.25;5095563;28;20209;-67
2023/08/28 10:47:50;;;;;;;2.90;1.90;;;;;;;15.12;100.00;95926.13;5114122;28;20213;-65
2023/08/28 10:50:17;;;;;;;1.70;1.60;;;;;;;15.21;100.00;95930.31;5113927;28;20209;-66
2023/08/28 10:52:45;;;;;;;2.33;2.13;;;;;;;15.23;100.00;95928.31;5114969;28;20653;-65
2023/08/28 10:55:12;;;;;;;1.90;1.80;;;;;;;15.23;100.00;95929.09;5114161;28;20201;-65
2023/08/28 10:57:40;;;;;;;3.57;1.90;;;;;;;15.14;100.00;95929.44;5113677;28;20201;-66
2023/08/28 11:00:15;;;;;;;2.38;2.10;;;;;;;15.30;100.00;95929.19;5114302;28;20201;-66
2023/08/28 11:03:09;;;;;;;4.00;1.85;;;;;;;15.31;100.00;95936.16;5114658;28;20200;-63
2023/08/28 11:05:37;;;;;;;2.15;1.65;;;;;;;15.41;100.00;95931.34;5113831;28;20197;-65
2023/08/28 11:08:06;;;;;;;1.95;1.85;;;;;;;15.41;100.00;95926.00;5113541;28;20551;-65
2023/08/28 11:10:33;;;;;;;2.27;1.80;;;;;;;15.47;100.00;95921.78;5113866;28;20198;-65
2023/08/28 11:13:05;;;;;;;8.60;3.42;;;;;;;15.43;100.00;95930.16;5113586;28;20205;-65
2023/08/28 11:15:33;;;;;;;2.17;1.98;;;;;;;15.42;100.00;95931.16;5113584;28;20205;-63
2023/08/28 11:18:27;;;;;;;2.38;1.88;;;;;;;15.33;100.00;95926.16;5113179;28;20209;-65
2023/08/28 11:20:55;;;;;;;1.95;1.85;;;;;;;15.34;100.00;95936.59;5115319;28;20205;-65
2023/08/28 11:23:23;;;;;;;2.65;2.28;;;;;;;15.30;100.00;95923.88;5115854;28;20212;-64
2023/08/28 11:25:50;;;;;;;2.37;2.03;;;;;;;15.10;100.00;95922.81;5115698;28;20207;-65
2023/08/28 11:28:29;;;;;;;5.77;2.23;;;;;;;15.22;100.00;95921.31;5115291;28;20235;-64